sensor_id;sensor_type;location;lat;lon;timestamp;temperature;humidity
33739;DHT22;20063;51.730;11.110;2022-12-07T00:01:19;2.40;99.90
33739;DHT22;20063;51.730;11.110;2022-12-07T00:03:49;2.40;99.90
33739;DHT22;20063;51.730;11.110;2022-12-07T00:06:17;2.30;99.90
33739;DHT22;20063;51.730;11.110;2022-12-07T00:08:44;2.40;99.90
33739;DHT22;20063;51.730;11.110;2022-12-07T00:11:12;2.40;99.90
33739;DHT22;20063;51.730;11.110;2022-12-07T00:13:38;2.60;99.90
33739;DHT22;20063;51.730;11.110;2022-12-07T00:16:13;2.50;99.90
33739;DHT22;20063;51.730;11.110;2022-12-07T00:18:40;2.60;99.90
33739;DHT22;20063;51.730;11.110;2022-12-07T00:21:11;2.50;99.90
33739;DHT22;20063;51.730;11.110;2022-12-07T00:23:38;2.50;99.90
33739;DHT22;20063;51.730;11.110;2022-12-07T00:26:06;2.50;99.90
33739;DHT22;20063;51.730;11.110;2022-12-07T00:28:32;2.50;99.90
33739;DHT22;20063;51.730;11.110;2022-12-07T00:31:10;2.50;99.90
33739;DHT22;20063;51.730;11.110;2022-12-07T00:33:38;2.50;99.90
33739;DHT22;20063;51.730;11.110;2022-12-07T00:36:10;2.50;99.90
33739;DHT22;20063;51.730;11.110;2022-12-07T00:38:38;2.50;99.90
33739;DHT22;20063;51.730;11.110;2022-12-07T00:41:09;2.50;99.90
33739;DHT22;20063;51.730;11.110;2022-12-07T00:43:34;2.50;99.90
33739;DHT22;20063;51.730;11.110;2022-12-07T00:46:00;2.50;99.90
33739;DHT22;20063;51.730;11.110;2022-12-07T00:48:26;2.50;99.90
33739;DHT22;20063;51.730;11.110;2022-12-07T00:50:51;2.60;99.90
33739;DHT22;20063;51.730;11.110;2022-12-07T00:53:17;2.70;99.90
33739;DHT22;20063;51.730;11.110;2022-12-07T00:55:44;2.70;99.90
33739;DHT22;20063;51.730;11.110;2022-12-07T00:58:10;2.80;99.90
33739;DHT22;20063;51.730;11.110;2022-12-07T01:00:37;2.80;99.90
33739;DHT22;20063;51.730;11.110;2022-12-07T01:03:04;2.80;99.90
33739;DHT22;20063;51.730;11.110;2022-12-07T01:05:29;2.70;99.90
33739;DHT22;20063;51.730;11.110;2022-12-07T01:07:55;2.70;99.90
33739;DHT22;20063;51.730;11.110;2022-12-07T01:10:21;2.70;99.90
33739;DHT22;20063;51.730;11.110;2022-12-07T01:12:47;2.70;99.90
33739;DHT22;20063;51.730;11.110;2022-12-07T01:15:13;2.70;99.90
33739;DHT22;20063;51.730;11.110;2022-12-07T01:17:38;2.60;99.90
33739;DHT22;20063;51.730;11.110;2022-12-07T01:20:05;2.60;99.90
33739;DHT22;20063;51.730;11.110;2022-12-07T01:22:30;2.60;99.90
33739;DHT22;20063;51.730;11.110;2022-12-07T01:24:56;2.60;99.90
33739;DHT22;20063;51.730;11.110;2022-12-07T01:27:21;2.60;99.90
33739;DHT22;20063;51.730;11.110;2022-12-07T01:29:47;2.60;99.90
33739;DHT22;20063;51.730;11.110;2022-12-07T01:32:13;2.60;99.90
33739;DHT22;20063;51.730;11.110;2022-12-07T01:34:38;2.60;99.90
33739;DHT22;20063;51.730;11.110;2022-12-07T01:37:04;2.60;99.90
33739;DHT22;20063;51.730;11.110;2022-12-07T01:39:29;2.60;99.90
33739;DHT22;20063;51.730;11.110;2022-12-07T01:41:55;2.60;99.90
33739;DHT22;20063;51.730;11.110;2022-12-07T01:44:26;2.70;99.90
33739;DHT22;20063;51.730;11.110;2022-12-07T01:46:54;2.70;99.90
33739;DHT22;20063;51.730;11.110;2022-12-07T01:49:45;2.70;99.90
33739;DHT22;20063;51.730;11.110;2022-12-07T01:54:37;2.80;99.90
33739;DHT22;20063;51.730;11.110;2022-12-07T01:57:04;2.80;99.90
33739;DHT22;20063;51.730;11.110;2022-12-07T01:59:32;2.90;99.90
33739;DHT22;20063;51.730;11.110;2022-12-07T02:01:58;2.90;99.90
33739;DHT22;20063;51.730;11.110;2022-12-07T02:04:27;2.90;99.90
33739;DHT22;20063;51.730;11.110;2022-12-07T02:06:53;2.90;99.90
33739;DHT22;20063;51.730;11.110;2022-12-07T02:09:20;3.00;99.90
33739;DHT22;20063;51.730;11.110;2022-12-07T02:11:46;3.00;99.90
33739;DHT22;20063;51.730;11.110;2022-12-07T02:14:11;3.00;99.90
33739;DHT22;20063;51.730;11.110;2022-12-07T02:17:02;3.00;99.90
33739;DHT22;20063;51.730;11.110;2022-12-07T02:22:51;3.00;99.90
33739;DHT22;20063;51.730;11.110;2022-12-07T02:28:18;3.10;99.90
33739;DHT22;20063;51.730;11.110;2022-12-07T02:30:48;3.10;99.90
33739;DHT22;20063;51.730;11.110;2022-12-07T02:33:19;3.20;99.90
33739;DHT22;20063;51.730;11.110;2022-12-07T02:41:46;3.20;99.90
33739;DHT22;20063;51.730;11.110;2022-12-07T02:44:15;3.10;99.90
33739;DHT22;20063;51.730;11.110;2022-12-07T02:46:47;3.10;99.90
33739;DHT22;20063;51.730;11.110;2022-12-07T02:49:15;3.10;99.90
33739;DHT22;20063;51.730;11.110;2022-12-07T02:51:46;3.10;99.90
33739;DHT22;20063;51.730;11.110;2022-12-07T02:54:13;3.10;99.90
33739;DHT22;20063;51.730;11.110;2022-12-07T02:56:50;3.10;99.90
33739;DHT22;20063;51.730;11.110;2022-12-07T03:07:58;3.10;99.90
33739;DHT22;20063;51.730;11.110;2022-12-07T03:16:43;3.20;99.90
33739;DHT22;20063;51.730;11.110;2022-12-07T03:19:17;3.20;99.90
33739;DHT22;20063;51.730;11.110;2022-12-07T03:21:47;3.20;99.90
33739;DHT22;20063;51.730;11.110;2022-12-07T03:24:21;3.20;99.90
33739;DHT22;20063;51.730;11.110;2022-12-07T03:27:18;3.10;99.90
33739;DHT22;20063;51.730;11.110;2022-12-07T03:29:58;3.10;99.90
33739;DHT22;20063;51.730;11.110;2022-12-07T03:32:35;3.10;99.90
33739;DHT22;20063;51.730;11.110;2022-12-07T03:35:06;3.20;99.90
33739;DHT22;20063;51.730;11.110;2022-12-07T03:38:00;3.10;99.90
33739;DHT22;20063;51.730;11.110;2022-12-07T03:40:30;3.10;99.90
33739;DHT22;20063;51.730;11.110;2022-12-07T03:42:59;3.10;99.90
33739;DHT22;20063;51.730;11.110;2022-12-07T03:48:24;3.20;99.90
33739;DHT22;20063;51.730;11.110;2022-12-07T03:51:22;3.20;99.90
33739;DHT22;20063;51.730;11.110;2022-12-07T03:54:19;3.20;99.90
33739;DHT22;20063;51.730;11.110;2022-12-07T03:56:43;3.20;99.90
33739;DHT22;20063;51.730;11.110;2022-12-07T03:59:11;3.20;99.90
33739;DHT22;20063;51.730;11.110;2022-12-07T04:01:38;3.10;99.90
33739;DHT22;20063;51.730;11.110;2022-12-07T04:04:04;3.20;99.90
33739;DHT22;20063;51.730;11.110;2022-12-07T04:06:29;3.10;99.90
33739;DHT22;20063;51.730;11.110;2022-12-07T04:08:55;3.10;99.90
33739;DHT22;20063;51.730;11.110;2022-12-07T04:11:20;3.00;99.90
33739;DHT22;20063;51.730;11.110;2022-12-07T04:13:46;3.10;99.90
33739;DHT22;20063;51.730;11.110;2022-12-07T04:16:30;3.10;99.90
33739;DHT22;20063;51.730;11.110;2022-12-07T04:18:57;3.10;99.90
33739;DHT22;20063;51.730;11.110;2022-12-07T04:21:23;3.10;99.90
33739;DHT22;20063;51.730;11.110;2022-12-07T04:23:49;3.10;99.90
33739;DHT22;20063;51.730;11.110;2022-12-07T04:26:14;3.10;99.90
33739;DHT22;20063;51.730;11.110;2022-12-07T04:28:40;3.10;99.90
33739;DHT22;20063;51.730;11.110;2022-12-07T04:31:06;3.20;99.90
33739;DHT22;20063;51.730;11.110;2022-12-07T04:33:31;3.20;99.90
33739;DHT22;20063;51.730;11.110;2022-12-07T04:35:57;3.20;99.90
33739;DHT22;20063;51.730;11.110;2022-12-07T04:38:22;3.20;99.90
33739;DHT22;20063;51.730;11.110;2022-12-07T04:40:48;3.20;99.90
33739;DHT22;20063;51.730;11.110;2022-12-07T04:43:14;3.20;99.90
33739;DHT22;20063;51.730;11.110;2022-12-07T04:45:39;3.20;99.90
33739;DHT22;20063;51.730;11.110;2022-12-07T04:48:05;3.30;99.90
33739;DHT22;20063;51.730;11.110;2022-12-07T04:50:31;3.20;99.90
33739;DHT22;20063;51.730;11.110;2022-12-07T04:52:56;3.30;99.90
33739;DHT22;20063;51.730;11.110;2022-12-07T04:55:22;3.30;99.90
33739;DHT22;20063;51.730;11.110;2022-12-07T04:57:47;3.30;99.90
33739;DHT22;20063;51.730;11.110;2022-12-07T05:00:13;3.40;99.90
33739;DHT22;20063;51.730;11.110;2022-12-07T05:02:39;3.30;99.90
33739;DHT22;20063;51.730;11.110;2022-12-07T05:05:05;3.30;99.90
33739;DHT22;20063;51.730;11.110;2022-12-07T05:07:30;3.40;99.90
33739;DHT22;20063;51.730;11.110;2022-12-07T05:09:56;3.40;99.90
33739;DHT22;20063;51.730;11.110;2022-12-07T05:12:21;3.40;99.90
33739;DHT22;20063;51.730;11.110;2022-12-07T05:14:47;3.30;99.90
33739;DHT22;20063;51.730;11.110;2022-12-07T05:17:13;3.30;99.90
33739;DHT22;20063;51.730;11.110;2022-12-07T05:19:38;3.30;99.90
33739;DHT22;20063;51.730;11.110;2022-12-07T05:22:04;3.30;99.90
33739;DHT22;20063;51.730;11.110;2022-12-07T05:24:30;3.30;99.90
33739;DHT22;20063;51.730;11.110;2022-12-07T05:26:55;3.30;99.90
33739;DHT22;20063;51.730;11.110;2022-12-07T05:29:21;3.30;99.90
33739;DHT22;20063;51.730;11.110;2022-12-07T05:31:46;3.40;99.90
33739;DHT22;20063;51.730;11.110;2022-12-07T05:34:12;3.40;99.90
33739;DHT22;20063;51.730;11.110;2022-12-07T05:36:38;3.40;99.90
33739;DHT22;20063;51.730;11.110;2022-12-07T05:39:04;3.40;99.90
33739;DHT22;20063;51.730;11.110;2022-12-07T05:41:29;3.50;99.90
33739;DHT22;20063;51.730;11.110;2022-12-07T05:44:14;3.50;99.90
33739;DHT22;20063;51.730;11.110;2022-12-07T05:46:40;3.50;99.90
33739;DHT22;20063;51.730;11.110;2022-12-07T05:49:05;3.60;99.90
33739;DHT22;20063;51.730;11.110;2022-12-07T05:51:31;3.60;99.90
33739;DHT22;20063;51.730;11.110;2022-12-07T05:53:57;3.60;99.90
33739;DHT22;20063;51.730;11.110;2022-12-07T05:56:23;3.70;99.90
33739;DHT22;20063;51.730;11.110;2022-12-07T05:58:48;3.70;99.90
33739;DHT22;20063;51.730;11.110;2022-12-07T06:01:32;3.60;99.90
33739;DHT22;20063;51.730;11.110;2022-12-07T06:03:58;3.70;99.90
33739;DHT22;20063;51.730;11.110;2022-12-07T06:06:24;3.70;99.90
33739;DHT22;20063;51.730;11.110;2022-12-07T06:08:49;3.70;99.90
33739;DHT22;20063;51.730;11.110;2022-12-07T06:11:15;3.70;99.90
33739;DHT22;20063;51.730;11.110;2022-12-07T06:13:59;3.70;99.90
33739;DHT22;20063;51.730;11.110;2022-12-07T06:16:25;3.70;99.90
33739;DHT22;20063;51.730;11.110;2022-12-07T06:18:50;3.70;99.90
33739;DHT22;20063;51.730;11.110;2022-12-07T06:21:16;3.70;99.90
33739;DHT22;20063;51.730;11.110;2022-12-07T06:23:42;3.70;99.90
33739;DHT22;20063;51.730;11.110;2022-12-07T06:26:07;3.60;99.90
33739;DHT22;20063;51.730;11.110;2022-12-07T06:28:33;3.60;99.90
33739;DHT22;20063;51.730;11.110;2022-12-07T06:31:00;3.60;99.90
33739;DHT22;20063;51.730;11.110;2022-12-07T06:33:26;3.60;99.90
33739;DHT22;20063;51.730;11.110;2022-12-07T06:35:52;3.60;99.90
33739;DHT22;20063;51.730;11.110;2022-12-07T06:38:17;3.60;99.90
33739;DHT22;20063;51.730;11.110;2022-12-07T06:40:43;3.60;99.90
33739;DHT22;20063;51.730;11.110;2022-12-07T06:43:09;3.60;99.90
33739;DHT22;20063;51.730;11.110;2022-12-07T06:45:34;3.60;99.90
33739;DHT22;20063;51.730;11.110;2022-12-07T06:48:00;3.60;99.90
33739;DHT22;20063;51.730;11.110;2022-12-07T06:50:26;3.60;99.90
33739;DHT22;20063;51.730;11.110;2022-12-07T06:52:52;3.60;99.90
33739;DHT22;20063;51.730;11.110;2022-12-07T06:55:18;3.60;99.90
33739;DHT22;20063;51.730;11.110;2022-12-07T06:57:44;3.60;99.90
33739;DHT22;20063;51.730;11.110;2022-12-07T07:00:10;3.60;99.90
33739;DHT22;20063;51.730;11.110;2022-12-07T07:02:35;3.50;99.90
33739;DHT22;20063;51.730;11.110;2022-12-07T07:05:01;3.40;99.90
33739;DHT22;20063;51.730;11.110;2022-12-07T07:07:27;3.40;99.90
33739;DHT22;20063;51.730;11.110;2022-12-07T07:09:52;3.30;99.90
33739;DHT22;20063;51.730;11.110;2022-12-07T07:12:18;3.20;99.90
33739;DHT22;20063;51.730;11.110;2022-12-07T07:14:43;3.20;99.90
33739;DHT22;20063;51.730;11.110;2022-12-07T07:17:09;3.10;99.90
33739;DHT22;20063;51.730;11.110;2022-12-07T07:19:35;3.10;99.90
33739;DHT22;20063;51.730;11.110;2022-12-07T07:22:03;3.00;99.90
33739;DHT22;20063;51.730;11.110;2022-12-07T07:24:29;2.90;99.90
33739;DHT22;20063;51.730;11.110;2022-12-07T07:26:54;2.90;99.90
33739;DHT22;20063;51.730;11.110;2022-12-07T07:29:20;2.90;99.90
33739;DHT22;20063;51.730;11.110;2022-12-07T07:31:46;2.80;99.90
33739;DHT22;20063;51.730;11.110;2022-12-07T07:34:11;2.70;99.90
33739;DHT22;20063;51.730;11.110;2022-12-07T07:36:37;2.70;99.90
33739;DHT22;20063;51.730;11.110;2022-12-07T07:39:03;2.80;99.90
33739;DHT22;20063;51.730;11.110;2022-12-07T07:41:29;2.80;99.90
33739;DHT22;20063;51.730;11.110;2022-12-07T07:43:54;2.90;99.90
33739;DHT22;20063;51.730;11.110;2022-12-07T07:46:20;3.00;99.90
33739;DHT22;20063;51.730;11.110;2022-12-07T07:48:45;3.10;99.90
33739;DHT22;20063;51.730;11.110;2022-12-07T07:51:11;3.10;99.90
33739;DHT22;20063;51.730;11.110;2022-12-07T07:53:37;3.10;99.90
33739;DHT22;20063;51.730;11.110;2022-12-07T07:56:02;3.10;99.90
33739;DHT22;20063;51.730;11.110;2022-12-07T07:58:28;3.10;99.90
33739;DHT22;20063;51.730;11.110;2022-12-07T08:00:54;3.10;99.90
33739;DHT22;20063;51.730;11.110;2022-12-07T08:03:20;3.10;99.90
33739;DHT22;20063;51.730;11.110;2022-12-07T08:05:46;3.00;99.90
33739;DHT22;20063;51.730;11.110;2022-12-07T08:08:11;3.00;99.90
33739;DHT22;20063;51.730;11.110;2022-12-07T08:10:37;3.00;99.90
33739;DHT22;20063;51.730;11.110;2022-12-07T08:13:03;2.90;99.90
33739;DHT22;20063;51.730;11.110;2022-12-07T08:15:45;2.90;99.90
33739;DHT22;20063;51.730;11.110;2022-12-07T08:18:13;2.90;99.90
33739;DHT22;20063;51.730;11.110;2022-12-07T08:20:40;2.90;99.90
33739;DHT22;20063;51.730;11.110;2022-12-07T08:23:07;2.90;99.90
33739;DHT22;20063;51.730;11.110;2022-12-07T08:25:33;3.00;99.90
33739;DHT22;20063;51.730;11.110;2022-12-07T08:27:59;3.00;99.90
33739;DHT22;20063;51.730;11.110;2022-12-07T08:30:27;3.10;99.90
33739;DHT22;20063;51.730;11.110;2022-12-07T08:32:53;3.10;99.90
33739;DHT22;20063;51.730;11.110;2022-12-07T08:35:19;3.20;99.90
33739;DHT22;20063;51.730;11.110;2022-12-07T08:37:45;3.30;99.90
33739;DHT22;20063;51.730;11.110;2022-12-07T08:40:12;3.30;99.90
33739;DHT22;20063;51.730;11.110;2022-12-07T08:42:43;3.20;99.90
33739;DHT22;20063;51.730;11.110;2022-12-07T08:45:12;3.30;99.90
33739;DHT22;20063;51.730;11.110;2022-12-07T08:47:55;3.30;99.90
33739;DHT22;20063;51.730;11.110;2022-12-07T08:50:22;3.30;99.90
33739;DHT22;20063;51.730;11.110;2022-12-07T08:52:53;3.40;99.90
33739;DHT22;20063;51.730;11.110;2022-12-07T08:55:20;3.40;99.90
33739;DHT22;20063;51.730;11.110;2022-12-07T08:57:46;3.40;99.90
33739;DHT22;20063;51.730;11.110;2022-12-07T09:00:13;3.40;99.90
33739;DHT22;20063;51.730;11.110;2022-12-07T09:02:38;3.40;99.90
33739;DHT22;20063;51.730;11.110;2022-12-07T09:05:04;3.40;99.90
33739;DHT22;20063;51.730;11.110;2022-12-07T09:07:32;3.40;99.90
33739;DHT22;20063;51.730;11.110;2022-12-07T09:09:59;3.40;99.90
33739;DHT22;20063;51.730;11.110;2022-12-07T09:12:25;3.40;99.90
33739;DHT22;20063;51.730;11.110;2022-12-07T09:14:50;3.40;99.90
33739;DHT22;20063;51.730;11.110;2022-12-07T09:17:16;3.50;99.90
33739;DHT22;20063;51.730;11.110;2022-12-07T09:19:41;3.50;99.90
33739;DHT22;20063;51.730;11.110;2022-12-07T09:22:08;3.60;99.90
33739;DHT22;20063;51.730;11.110;2022-12-07T09:24:34;3.50;99.90
33739;DHT22;20063;51.730;11.110;2022-12-07T09:27:00;3.50;99.90
33739;DHT22;20063;51.730;11.110;2022-12-07T09:29:25;3.60;99.90
33739;DHT22;20063;51.730;11.110;2022-12-07T09:31:52;3.50;99.90
33739;DHT22;20063;51.730;11.110;2022-12-07T09:34:18;3.50;99.90
33739;DHT22;20063;51.730;11.110;2022-12-07T09:36:44;3.50;99.90
33739;DHT22;20063;51.730;11.110;2022-12-07T09:39:09;3.50;99.90
33739;DHT22;20063;51.730;11.110;2022-12-07T09:41:41;3.50;99.90
33739;DHT22;20063;51.730;11.110;2022-12-07T09:44:22;3.50;99.90
33739;DHT22;20063;51.730;11.110;2022-12-07T09:46:49;3.50;99.90
33739;DHT22;20063;51.730;11.110;2022-12-07T09:49:19;3.50;99.90
33739;DHT22;20063;51.730;11.110;2022-12-07T09:51:46;3.50;99.90
33739;DHT22;20063;51.730;11.110;2022-12-07T09:54:14;3.50;99.90
33739;DHT22;20063;51.730;11.110;2022-12-07T09:56:40;3.50;99.90
33739;DHT22;20063;51.730;11.110;2022-12-07T09:59:13;3.50;99.90
33739;DHT22;20063;51.730;11.110;2022-12-07T10:01:39;3.50;99.90
33739;DHT22;20063;51.730;11.110;2022-12-07T10:04:18;3.50;99.90
33739;DHT22;20063;51.730;11.110;2022-12-07T10:06:44;3.60;99.90
33739;DHT22;20063;51.730;11.110;2022-12-07T10:09:16;3.50;99.90
33739;DHT22;20063;51.730;11.110;2022-12-07T10:14:27;3.60;99.90
33739;DHT22;20063;51.730;11.110;2022-12-07T10:16:53;3.60;99.90
33739;DHT22;20063;51.730;11.110;2022-12-07T10:19:32;3.60;99.90
33739;DHT22;20063;51.730;11.110;2022-12-07T10:22:12;3.60;99.90
33739;DHT22;20063;51.730;11.110;2022-12-07T10:24:39;3.60;99.90
33739;DHT22;20063;51.730;11.110;2022-12-07T10:27:30;3.70;99.90
33739;DHT22;20063;51.730;11.110;2022-12-07T10:29:58;3.70;99.90
33739;DHT22;20063;51.730;11.110;2022-12-07T10:32:35;3.70;99.90
33739;DHT22;20063;51.730;11.110;2022-12-07T10:37:58;3.80;99.90
33739;DHT22;20063;51.730;11.110;2022-12-07T10:40:33;3.80;99.90
33739;DHT22;20063;51.730;11.110;2022-12-07T10:43:18;3.80;99.90
33739;DHT22;20063;51.730;11.110;2022-12-07T10:51:09;3.80;99.90
33739;DHT22;20063;51.730;11.110;2022-12-07T11:07:12;4.00;99.90
33739;DHT22;20063;51.730;11.110;2022-12-07T11:12:33;3.90;99.90
33739;DHT22;20063;51.730;11.110;2022-12-07T11:18:03;3.80;99.90
33739;DHT22;20063;51.730;11.110;2022-12-07T11:26:06;3.80;99.90
33739;DHT22;20063;51.730;11.110;2022-12-07T11:39:04;4.00;99.90
33739;DHT22;20063;51.730;11.110;2022-12-07T11:41:35;4.00;99.90
33739;DHT22;20063;51.730;11.110;2022-12-07T11:44:06;4.00;99.90
33739;DHT22;20063;51.730;11.110;2022-12-07T11:46:57;4.00;99.90
33739;DHT22;20063;51.730;11.110;2022-12-07T11:51:59;4.00;99.90
33739;DHT22;20063;51.730;11.110;2022-12-07T11:54:35;4.00;99.90
33739;DHT22;20063;51.730;11.110;2022-12-07T11:57:15;4.10;99.90
33739;DHT22;20063;51.730;11.110;2022-12-07T11:59:56;4.00;99.90
33739;DHT22;20063;51.730;11.110;2022-12-07T12:02:43;4.10;99.90
33739;DHT22;20063;51.730;11.110;2022-12-07T12:05:20;4.10;99.90
33739;DHT22;20063;51.730;11.110;2022-12-07T12:07:59;4.20;99.90
33739;DHT22;20063;51.730;11.110;2022-12-07T12:10:54;4.20;99.90
33739;DHT22;20063;51.730;11.110;2022-12-07T12:16:05;4.20;99.90
33739;DHT22;20063;51.730;11.110;2022-12-07T12:21:23;4.30;99.90
33739;DHT22;20063;51.730;11.110;2022-12-07T12:26:28;4.30;99.90
33739;DHT22;20063;51.730;11.110;2022-12-07T12:29:00;4.30;99.90
33739;DHT22;20063;51.730;11.110;2022-12-07T12:31:33;4.30;99.90
33739;DHT22;20063;51.730;11.110;2022-12-07T12:34:03;4.20;99.90
33739;DHT22;20063;51.730;11.110;2022-12-07T12:46:56;4.10;99.90
33739;DHT22;20063;51.730;11.110;2022-12-07T12:55:13;4.10;99.90
33739;DHT22;20063;51.730;11.110;2022-12-07T12:57:40;4.00;99.90
33739;DHT22;20063;51.730;11.110;2022-12-07T13:00:21;4.00;99.90
33739;DHT22;20063;51.730;11.110;2022-12-07T13:02:53;4.00;99.90
33739;DHT22;20063;51.730;11.110;2022-12-07T13:05:24;4.00;99.90
33739;DHT22;20063;51.730;11.110;2022-12-07T13:08:00;4.00;99.90
33739;DHT22;20063;51.730;11.110;2022-12-07T13:26:35;4.00;99.90
33739;DHT22;20063;51.730;11.110;2022-12-07T13:31:45;3.90;99.90
33739;DHT22;20063;51.730;11.110;2022-12-07T13:36:57;3.80;99.90
33739;DHT22;20063;51.730;11.110;2022-12-07T13:39:24;3.80;99.90
33739;DHT22;20063;51.730;11.110;2022-12-07T13:41:55;3.70;99.90
33739;DHT22;20063;51.730;11.110;2022-12-07T13:44:23;3.70;99.90
33739;DHT22;20063;51.730;11.110;2022-12-07T13:46:54;3.70;99.90
33739;DHT22;20063;51.730;11.110;2022-12-07T13:49:31;3.70;99.90
33739;DHT22;20063;51.730;11.110;2022-12-07T13:52:19;3.70;99.90
33739;DHT22;20063;51.730;11.110;2022-12-07T13:57:22;3.70;99.90
33739;DHT22;20063;51.730;11.110;2022-12-07T13:59:49;3.70;99.90
33739;DHT22;20063;51.730;11.110;2022-12-07T14:02:29;3.60;99.90
33739;DHT22;20063;51.730;11.110;2022-12-07T14:05:24;3.60;99.90
33739;DHT22;20063;51.730;11.110;2022-12-07T14:08:03;3.60;99.90
33739;DHT22;20063;51.730;11.110;2022-12-07T14:10:31;3.60;99.90
33739;DHT22;20063;51.730;11.110;2022-12-07T14:12:58;3.40;99.90
33739;DHT22;20063;51.730;11.110;2022-12-07T14:15:28;3.30;99.90
33739;DHT22;20063;51.730;11.110;2022-12-07T14:17:56;3.10;99.90
33739;DHT22;20063;51.730;11.110;2022-12-07T14:23:01;2.90;99.90
33739;DHT22;20063;51.730;11.110;2022-12-07T14:25:45;2.70;99.90
33739;DHT22;20063;51.730;11.110;2022-12-07T14:28:32;2.60;99.90
33739;DHT22;20063;51.730;11.110;2022-12-07T14:30:58;2.60;99.90
33739;DHT22;20063;51.730;11.110;2022-12-07T14:33:25;2.60;99.90
33739;DHT22;20063;51.730;11.110;2022-12-07T14:35:51;2.60;99.90
33739;DHT22;20063;51.730;11.110;2022-12-07T14:38:24;2.60;99.90
33739;DHT22;20063;51.730;11.110;2022-12-07T14:40:52;2.50;99.90
33739;DHT22;20063;51.730;11.110;2022-12-07T14:43:18;2.50;99.90
33739;DHT22;20063;51.730;11.110;2022-12-07T14:45:44;2.50;99.90
33739;DHT22;20063;51.730;11.110;2022-12-07T14:48:12;2.50;99.90
33739;DHT22;20063;51.730;11.110;2022-12-07T14:50:44;2.50;99.90
33739;DHT22;20063;51.730;11.110;2022-12-07T14:53:16;2.50;99.90
33739;DHT22;20063;51.730;11.110;2022-12-07T14:55:42;2.50;99.90
33739;DHT22;20063;51.730;11.110;2022-12-07T14:58:14;2.60;99.90
33739;DHT22;20063;51.730;11.110;2022-12-07T15:00:40;2.60;99.90
33739;DHT22;20063;51.730;11.110;2022-12-07T15:03:05;2.70;99.90
33739;DHT22;20063;51.730;11.110;2022-12-07T15:05:32;2.70;99.90
33739;DHT22;20063;51.730;11.110;2022-12-07T15:07:58;2.80;99.90
33739;DHT22;20063;51.730;11.110;2022-12-07T15:10:27;2.90;99.90
33739;DHT22;20063;51.730;11.110;2022-12-07T15:12:57;3.00;99.90
33739;DHT22;20063;51.730;11.110;2022-12-07T15:15:42;3.10;99.90
33739;DHT22;20063;51.730;11.110;2022-12-07T15:18:08;3.20;99.90
33739;DHT22;20063;51.730;11.110;2022-12-07T15:20:34;3.10;99.90
33739;DHT22;20063;51.730;11.110;2022-12-07T15:22:59;3.10;99.90
33739;DHT22;20063;51.730;11.110;2022-12-07T15:25:25;3.10;99.90
33739;DHT22;20063;51.730;11.110;2022-12-07T15:27:51;3.10;99.90
33739;DHT22;20063;51.730;11.110;2022-12-07T15:30:16;3.10;99.90
33739;DHT22;20063;51.730;11.110;2022-12-07T15:32:42;3.20;99.90
33739;DHT22;20063;51.730;11.110;2022-12-07T15:35:09;3.10;99.90
33739;DHT22;20063;51.730;11.110;2022-12-07T15:37:35;3.10;99.90
33739;DHT22;20063;51.730;11.110;2022-12-07T15:40:01;3.10;99.90
33739;DHT22;20063;51.730;11.110;2022-12-07T15:42:26;3.20;99.90
33739;DHT22;20063;51.730;11.110;2022-12-07T15:44:52;3.10;99.90
33739;DHT22;20063;51.730;11.110;2022-12-07T15:47:34;3.10;99.90
33739;DHT22;20063;51.730;11.110;2022-12-07T15:50:02;3.00;99.90
33739;DHT22;20063;51.730;11.110;2022-12-07T15:52:28;3.00;99.90
33739;DHT22;20063;51.730;11.110;2022-12-07T15:54:54;3.10;99.90
33739;DHT22;20063;51.730;11.110;2022-12-07T15:57:19;3.10;99.90
33739;DHT22;20063;51.730;11.110;2022-12-07T15:59:45;3.10;99.90
33739;DHT22;20063;51.730;11.110;2022-12-07T16:02:11;3.10;99.90
33739;DHT22;20063;51.730;11.110;2022-12-07T16:04:36;3.10;99.90
33739;DHT22;20063;51.730;11.110;2022-12-07T16:07:02;3.10;99.90
33739;DHT22;20063;51.730;11.110;2022-12-07T16:09:28;3.20;99.90
33739;DHT22;20063;51.730;11.110;2022-12-07T16:11:54;3.20;99.90
33739;DHT22;20063;51.730;11.110;2022-12-07T16:14:20;3.20;99.90
33739;DHT22;20063;51.730;11.110;2022-12-07T16:16:47;3.20;99.90
33739;DHT22;20063;51.730;11.110;2022-12-07T16:19:13;3.20;99.90
33739;DHT22;20063;51.730;11.110;2022-12-07T16:21:39;3.20;99.90
33739;DHT22;20063;51.730;11.110;2022-12-07T16:24:05;3.20;99.90
33739;DHT22;20063;51.730;11.110;2022-12-07T16:26:31;3.20;99.90
33739;DHT22;20063;51.730;11.110;2022-12-07T16:28:57;3.20;99.90
33739;DHT22;20063;51.730;11.110;2022-12-07T16:31:25;3.20;99.90
33739;DHT22;20063;51.730;11.110;2022-12-07T16:33:57;3.10;99.90
33739;DHT22;20063;51.730;11.110;2022-12-07T16:36:25;3.20;99.90
33739;DHT22;20063;51.730;11.110;2022-12-07T16:38:52;3.20;99.90
33739;DHT22;20063;51.730;11.110;2022-12-07T16:41:18;3.20;99.90
33739;DHT22;20063;51.730;11.110;2022-12-07T16:43:44;3.10;99.90
33739;DHT22;20063;51.730;11.110;2022-12-07T16:46:09;3.20;99.90
33739;DHT22;20063;51.730;11.110;2022-12-07T16:48:39;3.10;99.90
33739;DHT22;20063;51.730;11.110;2022-12-07T16:51:06;3.10;99.90
33739;DHT22;20063;51.730;11.110;2022-12-07T16:53:34;3.10;99.90
33739;DHT22;20063;51.730;11.110;2022-12-07T16:55:59;3.10;99.90
33739;DHT22;20063;51.730;11.110;2022-12-07T16:58:25;3.10;99.90
33739;DHT22;20063;51.730;11.110;2022-12-07T17:00:51;3.20;99.90
33739;DHT22;20063;51.730;11.110;2022-12-07T17:03:17;3.10;99.90
33739;DHT22;20063;51.730;11.110;2022-12-07T17:05:44;3.10;99.90
33739;DHT22;20063;51.730;11.110;2022-12-07T17:08:11;3.20;99.90
33739;DHT22;20063;51.730;11.110;2022-12-07T17:10:38;3.20;99.90
33739;DHT22;20063;51.730;11.110;2022-12-07T17:13:05;3.20;99.90
33739;DHT22;20063;51.730;11.110;2022-12-07T17:16:02;3.20;99.90
33739;DHT22;20063;51.730;11.110;2022-12-07T17:18:34;3.10;99.90
33739;DHT22;20063;51.730;11.110;2022-12-07T17:21:07;3.10;99.90
33739;DHT22;20063;51.730;11.110;2022-12-07T17:23:33;3.20;99.90
33739;DHT22;20063;51.730;11.110;2022-12-07T17:26:08;3.20;99.90
33739;DHT22;20063;51.730;11.110;2022-12-07T17:28:35;3.20;99.90
33739;DHT22;20063;51.730;11.110;2022-12-07T17:31:04;3.30;99.90
33739;DHT22;20063;51.730;11.110;2022-12-07T17:33:30;3.20;99.90
33739;DHT22;20063;51.730;11.110;2022-12-07T17:35:56;3.20;99.90
33739;DHT22;20063;51.730;11.110;2022-12-07T17:38:22;3.20;99.90
33739;DHT22;20063;51.730;11.110;2022-12-07T17:40:47;3.20;99.90
33739;DHT22;20063;51.730;11.110;2022-12-07T17:43:13;3.10;99.90
33739;DHT22;20063;51.730;11.110;2022-12-07T17:45:38;3.20;99.90
33739;DHT22;20063;51.730;11.110;2022-12-07T17:48:04;3.20;99.90
33739;DHT22;20063;51.730;11.110;2022-12-07T17:50:30;3.20;99.90
33739;DHT22;20063;51.730;11.110;2022-12-07T17:53:14;3.20;99.90